Terminal Aerodrome Forecast
Issued by NWS Flagstaff, AZ

Home | Current Version | Previous Version | Text Only | Print | Product List | Glossary On
Versions: 1 2 3 4 5 6 7 8 9 10 11 12 13 14
000
FTUS45 KFGZ 291700
TAFINW
TAF
KINW 291730Z 2918/3018 VRB05KT P6SM BKN120 OVC150
     FM300200 VRB05KT P6SM VCSH OVC060
     FM300500 VRB05KT 5SM -SHRA SCT025 OVC040
     FM301200 10006KT 3SM -RA BR SCT010 OVC030=

USA.gov is the U.S. government's official web portal to all federal, state and local government web resources and services.